createdAt,value
2023-01-13T00:00:24.044Z,153.73
2023-01-13T00:02:50.934Z,167.07
2023-01-13T00:05:17.879Z,157.57
2023-01-13T00:07:46.542Z,137.68
2023-01-13T00:10:13.374Z,117.05
2023-01-13T00:12:41.923Z,116.63
2023-01-13T00:15:10.060Z,121.28
2023-01-13T00:17:36.983Z,125.40
2023-01-13T00:20:04.081Z,127.28
2023-01-13T00:22:34.047Z,111.25
2023-01-13T00:25:01.667Z,88.88
2023-01-13T00:27:29.384Z,75.28
2023-01-13T00:29:56.274Z,75.22
2023-01-13T00:32:23.411Z,85.05
2023-01-13T00:34:50.355Z,91.90
2023-01-13T00:37:17.260Z,101.50
2023-01-13T00:39:44.333Z,104.97
2023-01-13T00:42:29.692Z,110.90
2023-01-13T00:44:56.722Z,114.78
2023-01-13T00:47:23.591Z,127.88
2023-01-13T00:49:50.545Z,118.28
2023-01-13T00:52:17.377Z,114.10
2023-01-13T00:54:44.277Z,122.43
2023-01-13T00:57:11.221Z,126.32
2023-01-13T00:59:38.030Z,124.80
2023-01-13T01:02:05.041Z,121.78
2023-01-13T01:04:31.991Z,119.10
2023-01-13T01:06:58.868Z,136.50
2023-01-13T01:09:32.733Z,128.32
2023-01-13T01:12:01.595Z,136.57
2023-01-13T01:14:28.512Z,139.52
2023-01-13T01:16:55.423Z,134.20
2023-01-13T01:19:22.231Z,139.55
2023-01-13T01:21:49.076Z,161.30
2023-01-13T01:24:16.834Z,155.48
2023-01-13T01:26:43.846Z,152.52
2023-01-13T01:29:13.913Z,160.27
2023-01-13T01:31:40.885Z,142.88
2023-01-13T01:34:07.723Z,144.40
2023-01-13T01:36:36.706Z,146.40
2023-01-13T01:39:04.466Z,147.82
2023-01-13T01:41:33.552Z,142.35
2023-01-13T01:44:08.188Z,139.93
2023-01-13T01:46:43.276Z,146.75
2023-01-13T01:49:32.705Z,136.20
2023-01-13T01:52:10.584Z,137.77
2023-01-13T01:54:40.442Z,136.00
2023-01-13T01:57:11.109Z,139.65
2023-01-13T01:59:39.085Z,142.27
2023-01-13T02:02:07.293Z,151.45
2023-01-13T02:04:39.318Z,150.25
2023-01-13T02:07:07.267Z,139.77
2023-01-13T02:09:36.627Z,134.27
2023-01-13T02:12:22.268Z,147.55
2023-01-13T02:14:49.132Z,139.93
2023-01-13T02:17:21.992Z,136.38
2023-01-13T02:20:16.950Z,138.55
2023-01-13T02:22:43.828Z,139.80
2023-01-13T02:25:10.584Z,139.93
2023-01-13T02:28:00.761Z,134.07
2023-01-13T02:31:13.226Z,138.90
2023-01-13T02:34:04.837Z,136.18
2023-01-13T02:36:47.964Z,131.05
2023-01-13T02:39:27.452Z,123.60
2023-01-13T02:42:40.561Z,118.20
2023-01-13T02:45:11.843Z,108.60
2023-01-13T02:47:41.497Z,123.53
2023-01-13T02:50:17.612Z,123.85
2023-01-13T02:53:08.749Z,130.88
2023-01-13T02:55:43.442Z,135.43
2023-01-13T02:58:15.735Z,131.20
2023-01-13T03:00:43.778Z,135.95
2023-01-13T03:03:10.715Z,135.02
2023-01-13T03:05:38.660Z,135.05
2023-01-13T03:08:19.666Z,118.15
2023-01-13T03:11:07.716Z,123.82
2023-01-13T03:13:45.545Z,127.93
2023-01-13T03:16:41.233Z,130.57
2023-01-13T03:19:08.089Z,135.93
2023-01-13T03:21:44.360Z,132.98
2023-01-13T03:24:39.155Z,131.93
2023-01-13T03:27:20.652Z,143.15
2023-01-13T03:29:59.344Z,140.70
2023-01-13T03:32:34.379Z,131.30
2023-01-13T03:35:16.880Z,133.57
2023-01-13T03:37:49.634Z,119.35
2023-01-13T03:40:24.767Z,115.32
2023-01-13T03:43:16.036Z,103.18
2023-01-13T03:45:44.928Z,109.35
2023-01-13T03:48:16.842Z,92.78
2023-01-13T03:50:54.182Z,93.10
2023-01-13T03:53:37.217Z,89.85
2023-01-13T03:56:22.894Z,95.05
2023-01-13T03:58:53.283Z,94.53
2023-01-13T04:01:35.483Z,101.03
2023-01-13T04:04:14.973Z,103.88
2023-01-13T04:07:02.341Z,100.65
2023-01-13T04:09:31.612Z,104.03
2023-01-13T04:12:22.543Z,100.05
2023-01-13T04:14:50.102Z,108.05
2023-01-13T04:17:17.467Z,101.65
2023-01-13T04:19:44.456Z,104.25
2023-01-13T04:22:11.337Z,114.80
2023-01-13T04:24:38.187Z,111.32
2023-01-13T04:27:05.075Z,114.20
2023-01-13T04:29:32.250Z,133.95
2023-01-13T04:31:59.055Z,151.82
2023-01-13T04:34:28.452Z,150.90
2023-01-13T04:36:55.447Z,145.23
2023-01-13T04:39:22.274Z,139.38
2023-01-13T04:41:58.296Z,147.55
2023-01-13T04:44:26.578Z,138.23
2023-01-13T04:46:53.747Z,127.60
2023-01-13T04:49:20.805Z,141.13
2023-01-13T04:51:47.658Z,140.35
2023-01-13T04:54:14.642Z,130.20
2023-01-13T04:56:42.555Z,133.07
2023-01-13T04:59:11.044Z,133.05
2023-01-13T05:01:38.623Z,144.05
2023-01-13T05:04:08.632Z,138.27
2023-01-13T05:06:35.510Z,146.38
2023-01-13T05:09:02.307Z,146.90
2023-01-13T05:11:47.882Z,147.07
2023-01-13T05:14:33.186Z,144.93
2023-01-13T05:17:03.758Z,163.50
2023-01-13T05:19:33.794Z,157.27
2023-01-13T05:22:20.231Z,144.95
2023-01-13T05:25:06.192Z,151.93
2023-01-13T05:27:33.437Z,136.55
2023-01-13T05:30:00.257Z,139.38
2023-01-13T05:32:30.417Z,141.98
2023-01-13T05:34:57.746Z,133.63
2023-01-13T05:37:25.989Z,145.05
2023-01-13T05:40:11.845Z,135.48
2023-01-13T05:42:57.631Z,133.93
2023-01-13T05:45:24.592Z,128.10
2023-01-13T05:47:51.620Z,124.15
2023-01-13T05:50:19.006Z,123.50
2023-01-13T05:52:45.917Z,124.25
2023-01-13T05:55:13.135Z,127.28
2023-01-13T05:57:39.951Z,134.77
2023-01-13T06:00:07.564Z,129.68
2023-01-13T06:02:40.381Z,128.13
2023-01-13T06:05:07.970Z,130.93
2023-01-13T06:07:34.806Z,128.80
2023-01-13T06:10:01.718Z,124.82
2023-01-13T06:12:28.579Z,125.72
2023-01-13T06:14:55.596Z,125.63
2023-01-13T06:17:22.451Z,121.93
2023-01-13T06:19:49.406Z,120.70
2023-01-13T06:22:26.207Z,122.28
2023-01-13T06:24:54.880Z,114.93
2023-01-13T06:27:23.202Z,112.32
2023-01-13T06:29:50.448Z,116.13
2023-01-13T06:32:29.752Z,117.70
2023-01-13T06:35:05.502Z,121.43
2023-01-13T06:37:34.152Z,104.95
2023-01-13T06:40:02.920Z,98.60
2023-01-13T06:42:51.788Z,88.47
2023-01-13T06:45:19.182Z,93.68
2023-01-13T06:47:46.015Z,91.18
2023-01-13T06:50:13.155Z,90.18
2023-01-13T06:52:40.196Z,92.00
2023-01-13T06:55:07.469Z,97.88
2023-01-13T06:57:34.320Z,94.93
2023-01-13T07:00:01.324Z,98.55
2023-01-13T07:02:28.516Z,85.50
2023-01-13T07:04:55.511Z,82.93
2023-01-13T07:07:22.320Z,89.85
2023-01-13T07:09:49.227Z,105.57
2023-01-13T07:12:16.099Z,99.75
2023-01-13T07:15:01.343Z,98.18
2023-01-13T07:17:28.313Z,97.40
2023-01-13T07:19:55.115Z,86.00
2023-01-13T07:22:22.072Z,91.53
2023-01-13T07:24:48.969Z,84.47
2023-01-13T07:27:15.972Z,83.57
2023-01-13T07:29:44.000Z,84.25
2023-01-13T07:32:10.908Z,93.72
2023-01-13T07:34:37.781Z,95.60
2023-01-13T07:37:04.701Z,88.43
2023-01-13T07:39:31.681Z,86.40
2023-01-13T07:42:17.392Z,93.80
2023-01-13T07:44:44.462Z,95.78
2023-01-13T07:47:11.431Z,88.32
2023-01-13T07:49:38.360Z,85.78
2023-01-13T07:52:05.481Z,91.97
2023-01-13T07:54:40.762Z,101.90
2023-01-13T07:57:08.629Z,108.22
2023-01-13T07:59:35.495Z,95.10
2023-01-13T08:02:02.636Z,84.55
2023-01-13T08:04:29.665Z,72.88
2023-01-13T08:06:56.666Z,85.05
2023-01-13T08:09:23.570Z,72.55
2023-01-13T08:12:13.753Z,77.85
2023-01-13T08:14:40.666Z,75.97
2023-01-13T08:17:09.222Z,80.18
2023-01-13T08:19:36.101Z,69.65
2023-01-13T08:22:02.929Z,86.47
2023-01-13T08:24:29.793Z,82.07
2023-01-13T08:26:56.674Z,84.03
2023-01-13T08:29:23.581Z,84.05
2023-01-13T08:31:50.360Z,83.22
2023-01-13T08:34:17.364Z,77.50
2023-01-13T08:36:44.643Z,75.32
2023-01-13T08:39:11.590Z,67.22
2023-01-13T08:41:57.159Z,71.50
2023-01-13T08:44:27.003Z,73.35
2023-01-13T08:46:54.645Z,73.68
2023-01-13T08:49:22.587Z,75.43
2023-01-13T08:51:49.719Z,74.93
2023-01-13T08:54:17.476Z,78.63
2023-01-13T08:56:45.707Z,94.43
2023-01-13T08:59:18.593Z,89.35
2023-01-13T09:01:45.934Z,93.72
2023-01-13T09:04:19.791Z,96.40
2023-01-13T09:06:48.025Z,86.80
2023-01-13T09:09:15.176Z,83.78
2023-01-13T09:12:05.921Z,73.15
2023-01-13T09:14:35.012Z,70.75
2023-01-13T09:17:01.958Z,69.63
2023-01-13T09:19:29.361Z,62.83
2023-01-13T09:21:57.261Z,59.00
2023-01-13T09:24:25.001Z,69.25
2023-01-13T09:26:52.435Z,68.07
2023-01-13T09:29:20.114Z,67.22
2023-01-13T09:31:47.468Z,73.32
2023-01-13T09:34:36.959Z,64.50
2023-01-13T09:37:05.939Z,66.18
2023-01-13T09:39:49.699Z,62.47
2023-01-13T09:42:51.701Z,72.80
2023-01-13T09:45:42.856Z,91.50
2023-01-13T09:48:15.515Z,88.28
2023-01-13T09:50:55.881Z,88.03
2023-01-13T09:53:32.729Z,77.20
2023-01-13T09:56:00.344Z,81.63
2023-01-13T09:58:27.565Z,79.47
2023-01-13T10:01:17.536Z,89.53
2023-01-13T10:03:44.661Z,83.60
2023-01-13T10:06:15.242Z,92.07
2023-01-13T10:08:44.137Z,107.57
2023-01-13T10:11:43.854Z,112.20
2023-01-13T10:14:32.344Z,101.05
2023-01-13T10:17:18.281Z,97.00
2023-01-13T10:19:50.941Z,91.68
2023-01-13T10:22:42.414Z,91.13
2023-01-13T10:25:25.437Z,81.85
2023-01-13T10:27:58.628Z,84.40
2023-01-13T10:30:40.349Z,85.60
2023-01-13T10:33:15.032Z,87.78
2023-01-13T10:36:00.123Z,77.72
2023-01-13T10:38:35.952Z,76.30
2023-01-13T10:41:21.166Z,74.28
2023-01-13T10:44:06.358Z,68.80
2023-01-13T10:46:50.231Z,74.07
2023-01-13T10:49:36.535Z,79.45
2023-01-13T10:52:24.003Z,71.53
2023-01-13T10:54:55.153Z,65.25
2023-01-13T10:57:27.724Z,69.95
2023-01-13T10:59:55.719Z,68.03
2023-01-13T11:02:29.729Z,63.80
2023-01-13T11:04:58.181Z,59.38
2023-01-13T11:07:40.978Z,70.95
2023-01-13T11:10:10.636Z,57.28
2023-01-13T11:13:14.314Z,57.15
2023-01-13T11:15:57.816Z,54.95
2023-01-13T11:18:37.907Z,49.60
2023-01-13T11:21:12.117Z,35.20
2023-01-13T11:23:49.185Z,37.22
2023-01-13T11:26:25.511Z,41.97
2023-01-13T11:29:08.438Z,42.83
2023-01-13T11:31:47.637Z,35.83
2023-01-13T11:34:28.760Z,35.22
2023-01-13T11:36:59.311Z,34.80
2023-01-13T11:39:44.296Z,36.50
2023-01-13T11:42:24.167Z,35.28
2023-01-13T11:44:59.358Z,34.67
2023-01-13T11:47:27.427Z,29.80
2023-01-13T11:49:54.893Z,31.35
2023-01-13T11:52:24.730Z,35.92
2023-01-13T11:54:59.304Z,31.25
2023-01-13T11:57:50.645Z,36.90
2023-01-13T12:00:56.357Z,31.77
2023-01-13T12:03:43.636Z,38.08
2023-01-13T12:06:33.587Z,32.80
2023-01-13T12:09:37.341Z,33.67
2023-01-13T12:12:19.947Z,31.13
2023-01-13T12:15:03.145Z,31.33
2023-01-13T12:17:54.861Z,34.22
2023-01-13T12:20:24.680Z,34.28
2023-01-13T12:22:55.179Z,33.92
2023-01-13T12:25:34.494Z,42.00
2023-01-13T12:28:05.039Z,39.15
2023-01-13T12:30:37.776Z,46.53
2023-01-13T12:33:27.487Z,48.10
2023-01-13T12:36:02.654Z,44.80
2023-01-13T12:38:37.437Z,44.45
2023-01-13T12:41:33.624Z,42.50
2023-01-13T12:44:20.443Z,47.95
2023-01-13T12:46:53.431Z,41.88
2023-01-13T12:49:24.627Z,42.20
2023-01-13T12:51:57.320Z,48.00
2023-01-13T12:54:43.559Z,43.97
2023-01-13T12:57:25.012Z,44.83
2023-01-13T13:00:16.728Z,48.15
2023-01-13T13:03:03.796Z,48.08
2023-01-13T13:05:39.874Z,45.35
2023-01-13T13:08:07.107Z,45.72
2023-01-13T13:10:40.774Z,44.33
2023-01-13T13:13:20.664Z,39.70
2023-01-13T13:15:51.739Z,39.90
2023-01-13T13:18:19.679Z,44.53
2023-01-13T13:21:09.267Z,40.22
2023-01-13T13:23:48.467Z,46.10
2023-01-13T13:26:20.244Z,44.47
2023-01-13T13:29:01.929Z,44.60
2023-01-13T13:32:08.734Z,44.10
2023-01-13T13:34:43.553Z,39.95
2023-01-13T13:37:25.173Z,36.60
2023-01-13T13:40:11.334Z,37.58
2023-01-13T13:43:10.749Z,43.78
2023-01-13T13:45:56.475Z,41.13
2023-01-13T13:48:34.411Z,41.78
2023-01-13T13:51:05.958Z,43.10
2023-01-13T13:53:41.839Z,44.42
2023-01-13T13:56:19.175Z,42.55
2023-01-13T13:58:48.369Z,48.25
2023-01-13T14:01:37.874Z,42.83
2023-01-13T14:04:14.653Z,41.85
2023-01-13T14:07:01.839Z,39.40
2023-01-13T14:09:39.092Z,60.72
2023-01-13T14:12:15.237Z,45.60
2023-01-13T14:14:46.816Z,40.40
2023-01-13T14:17:27.453Z,46.72
2023-01-13T14:20:08.517Z,46.28
2023-01-13T14:22:35.799Z,57.05
2023-01-13T14:25:02.748Z,48.13
2023-01-13T14:27:30.600Z,49.33
2023-01-13T14:30:00.385Z,47.65
2023-01-13T14:32:35.447Z,49.15
2023-01-13T14:35:06.384Z,45.90
2023-01-13T14:37:38.995Z,47.45
2023-01-13T14:40:06.897Z,42.92
2023-01-13T14:42:35.693Z,48.83
2023-01-13T14:45:03.507Z,45.90
2023-01-13T14:47:34.147Z,44.55
2023-01-13T14:50:34.038Z,51.05
2023-01-13T14:53:01.752Z,52.13
2023-01-13T14:55:40.529Z,47.80
2023-01-13T14:58:22.472Z,47.70
2023-01-13T15:00:51.130Z,45.55
2023-01-13T15:03:20.963Z,41.25
2023-01-13T15:05:52.542Z,39.42
2023-01-13T15:08:26.173Z,33.45
2023-01-13T15:11:00.086Z,30.70
2023-01-13T15:13:35.917Z,28.38
2023-01-13T15:16:13.934Z,32.80
2023-01-13T15:18:41.414Z,29.85
2023-01-13T15:21:09.666Z,31.58
2023-01-13T15:23:38.608Z,46.03
2023-01-13T15:26:15.255Z,37.40
2023-01-13T15:28:42.200Z,54.88
2023-01-13T15:31:09.687Z,48.78
2023-01-13T15:33:36.531Z,50.92
2023-01-13T15:36:03.522Z,49.00
2023-01-13T15:38:30.488Z,48.40
2023-01-13T15:40:57.375Z,46.45
2023-01-13T15:43:43.140Z,40.42
2023-01-13T15:46:38.123Z,50.75
2023-01-13T15:49:34.410Z,45.35
2023-01-13T15:52:21.614Z,43.08
2023-01-13T15:54:49.188Z,48.15
2023-01-13T15:57:24.977Z,39.63
2023-01-13T15:59:55.425Z,49.78
2023-01-13T16:02:23.669Z,50.50
2023-01-13T16:04:53.910Z,51.90
2023-01-13T16:07:22.653Z,54.08
2023-01-13T16:09:49.735Z,54.75
2023-01-13T16:15:22.591Z,52.03
2023-01-13T16:17:58.071Z,57.25
2023-01-13T16:20:24.943Z,52.92
2023-01-13T16:22:52.859Z,48.25
2023-01-13T16:25:25.429Z,56.60
2023-01-13T16:27:53.016Z,51.40
2023-01-13T16:30:35.109Z,61.38
2023-01-13T16:33:02.849Z,68.45
2023-01-13T16:35:32.078Z,69.13
2023-01-13T16:38:00.037Z,76.32
2023-01-13T16:40:33.699Z,84.43
2023-01-13T16:43:03.480Z,77.63
2023-01-13T16:45:31.675Z,71.18
2023-01-13T16:47:58.533Z,62.78
2023-01-13T16:50:36.359Z,68.60
2023-01-13T16:53:04.768Z,64.70
2023-01-13T16:55:31.738Z,52.53
2023-01-13T16:57:58.788Z,55.67
2023-01-13T17:00:25.685Z,53.95
2023-01-13T17:02:52.535Z,47.42
2023-01-13T17:05:19.676Z,54.75
2023-01-13T17:07:47.868Z,66.93
2023-01-13T17:10:23.319Z,63.05
2023-01-13T17:12:50.740Z,58.95
2023-01-13T17:15:19.320Z,52.33
2023-01-13T17:17:48.902Z,60.78
2023-01-13T17:20:16.457Z,52.80
2023-01-13T17:22:45.606Z,49.88
2023-01-13T17:25:14.882Z,44.45
2023-01-13T17:27:42.348Z,46.70
2023-01-13T17:30:11.465Z,44.97
2023-01-13T17:32:38.534Z,41.47
2023-01-13T17:35:07.840Z,41.67
2023-01-13T17:37:35.273Z,45.73
2023-01-13T17:40:02.276Z,43.47
2023-01-13T17:42:29.799Z,39.63
2023-01-13T17:44:56.694Z,42.17
2023-01-13T17:47:24.725Z,39.05
2023-01-13T17:49:51.600Z,39.70
2023-01-13T17:52:18.520Z,44.35
2023-01-13T17:54:45.523Z,48.25
2023-01-13T17:57:12.546Z,46.05
2023-01-13T17:59:41.511Z,41.80
2023-01-13T18:02:11.941Z,39.03
2023-01-13T18:04:38.866Z,44.78
2023-01-13T18:07:06.437Z,37.88
2023-01-13T18:09:33.550Z,36.28
2023-01-13T18:12:00.831Z,34.85
2023-01-13T18:14:28.308Z,34.05
2023-01-13T18:16:55.407Z,37.22
2023-01-13T18:19:40.851Z,36.47
2023-01-13T18:22:31.201Z,33.28
2023-01-13T18:25:16.728Z,29.55
2023-01-13T18:27:43.675Z,32.97
2023-01-13T18:30:12.098Z,34.58
2023-01-13T18:32:39.096Z,35.45
2023-01-13T18:35:10.571Z,36.20
2023-01-13T18:37:40.540Z,39.78
2023-01-13T18:40:09.821Z,39.00
2023-01-13T18:42:54.728Z,39.55
2023-01-13T18:45:30.795Z,43.75
2023-01-13T18:48:00.871Z,46.05
2023-01-13T18:50:28.423Z,47.33
2023-01-13T18:52:56.112Z,40.60
2023-01-13T18:55:24.015Z,48.28
2023-01-13T18:57:51.520Z,48.25
2023-01-13T19:00:20.177Z,47.10
2023-01-13T19:02:48.019Z,48.25
2023-01-13T19:05:15.055Z,41.40
2023-01-13T19:07:43.566Z,47.50
2023-01-13T19:10:13.051Z,49.13
2023-01-13T19:12:39.978Z,45.85
2023-01-13T19:15:07.633Z,43.42
2023-01-13T19:17:35.531Z,43.15
2023-01-13T19:20:04.881Z,49.35
2023-01-13T19:22:34.294Z,50.80
2023-01-13T19:25:02.360Z,45.58
2023-01-13T19:27:30.388Z,47.70
2023-01-13T19:30:00.635Z,53.03
2023-01-13T19:32:28.430Z,56.63
2023-01-13T19:34:59.362Z,60.55
2023-01-13T19:37:31.034Z,52.20
2023-01-13T19:40:00.696Z,56.15
2023-01-13T19:42:46.513Z,98.18
2023-01-13T19:45:31.487Z,122.57
2023-01-13T19:48:02.027Z,48.95
2023-01-13T19:50:29.278Z,43.08
2023-01-13T19:52:56.139Z,42.65
2023-01-13T19:55:23.453Z,38.15
2023-01-13T19:57:50.585Z,34.78
2023-01-13T20:00:20.642Z,37.30
2023-01-13T20:05:21.499Z,35.90
2023-01-13T20:07:50.103Z,37.33
2023-01-13T20:10:19.160Z,36.85
2023-01-13T20:12:46.079Z,36.60
2023-01-13T20:15:13.086Z,33.67
2023-01-13T20:17:41.591Z,30.95
2023-01-13T20:20:09.947Z,35.22
2023-01-13T20:22:38.520Z,32.03
2023-01-13T20:25:05.794Z,29.63
2023-01-13T20:27:32.720Z,34.40
2023-01-13T20:29:59.635Z,33.88
2023-01-13T20:32:26.539Z,32.70
2023-01-13T20:34:53.578Z,34.33
2023-01-13T20:37:20.533Z,33.47
2023-01-13T20:39:48.241Z,35.92
2023-01-13T20:42:30.374Z,34.60
2023-01-13T20:45:00.056Z,43.45
2023-01-13T20:47:28.435Z,33.88
2023-01-13T20:49:55.346Z,39.30
2023-01-13T20:52:22.379Z,40.20
2023-01-13T20:54:49.310Z,37.38
2023-01-13T20:57:16.245Z,37.42
2023-01-13T20:59:43.149Z,39.33
2023-01-13T21:02:15.052Z,38.33
2023-01-13T21:04:42.325Z,40.90
2023-01-13T21:07:10.138Z,37.78
2023-01-13T21:09:37.248Z,37.75
2023-01-13T21:12:23.329Z,44.22
2023-01-13T21:15:08.888Z,44.25
2023-01-13T21:17:55.364Z,41.67
2023-01-13T21:20:22.521Z,39.63
2023-01-13T21:22:49.665Z,53.67
2023-01-13T21:25:18.316Z,63.47
2023-01-13T21:27:45.208Z,69.53
2023-01-13T21:30:15.022Z,86.70
2023-01-13T21:32:43.632Z,84.85
2023-01-13T21:35:11.097Z,74.95
2023-01-13T21:37:38.939Z,64.88
2023-01-13T21:40:30.211Z,62.70
2023-01-13T21:43:17.814Z,61.67
2023-01-13T21:46:05.553Z,53.88
2023-01-13T21:48:32.683Z,61.70
2023-01-13T21:51:01.401Z,64.70
2023-01-13T21:53:28.275Z,67.53
2023-01-13T21:55:55.116Z,65.72
2023-01-13T21:58:22.036Z,62.70
2023-01-13T22:00:50.008Z,61.80
2023-01-13T22:03:18.832Z,59.53
2023-01-13T22:05:46.409Z,65.60
2023-01-13T22:11:02.802Z,64.25
2023-01-13T22:13:48.384Z,60.17
2023-01-13T22:16:15.645Z,66.78
2023-01-13T22:18:42.588Z,60.60
2023-01-13T22:21:09.711Z,64.50
2023-01-13T22:23:36.828Z,63.85
2023-01-13T22:26:05.155Z,64.47
2023-01-13T22:28:40.111Z,69.57
2023-01-13T22:31:18.447Z,57.42
2023-01-13T22:33:48.515Z,51.90
2023-01-13T22:36:16.463Z,47.67
2023-01-13T22:38:43.266Z,49.85
2023-01-13T22:41:10.878Z,50.58
2023-01-13T22:43:38.571Z,50.28
2023-01-13T22:46:11.565Z,54.30
2023-01-13T22:48:39.603Z,51.75
2023-01-13T22:51:17.073Z,49.45
2023-01-13T22:53:44.071Z,48.83
2023-01-13T22:56:18.031Z,49.83
2023-01-13T22:58:45.081Z,48.47
2023-01-13T23:01:17.362Z,51.50
2023-01-13T23:03:48.385Z,46.30
2023-01-13T23:06:18.315Z,46.13
2023-01-13T23:08:46.244Z,45.40
2023-01-13T23:11:16.716Z,45.33
2023-01-13T23:13:44.130Z,44.45
2023-01-13T23:16:14.801Z,44.20
2023-01-13T23:18:51.006Z,40.45
2023-01-13T23:21:21.100Z,52.25
2023-01-13T23:23:48.419Z,59.67
2023-01-13T23:26:16.311Z,60.35
2023-01-13T23:28:43.525Z,62.42
2023-01-13T23:31:15.896Z,60.97
2023-01-13T23:33:44.065Z,60.88
2023-01-13T23:36:14.721Z,60.28
2023-01-13T23:38:42.339Z,62.47
2023-01-13T23:41:12.219Z,62.30
2023-01-13T23:43:39.261Z,57.85
2023-01-13T23:46:11.684Z,58.47
2023-01-13T23:48:38.747Z,64.80
2023-01-13T23:51:08.707Z,61.58
2023-01-13T23:53:40.437Z,65.28
2023-01-13T23:56:11.369Z,66.43
2023-01-13T23:58:38.221Z,61.50
